Time;durP1;ratioP1;P1;durP2;ratioP2;P2;SDS_P1;SDS_P2;PMS_P1;PMS_P2;Temp;Humidity;BMP_temperature;BMP_pressure;BME280_temperature;BME280_humidity;BME280_pressure;Samples;Min_cycle;Max_cycle;Signal;HPM_P1;HPM_P2
2021/05/29 00:01:30;;;;;;;;;;;;;;;8.48;100.00;101482.81;5070211;28;19928;-68
2021/05/29 00:03:56;;;;;;;;;;;;;;;8.45;100.00;101477.59;5070756;28;19925;-69
2021/05/29 00:06:21;;;;;;;;;;;;;;;8.48;100.00;101482.81;5052656;28;20341;-69
2021/05/29 00:08:47;;;;;;;;;;;;;;;8.53;100.00;101479.84;5070925;28;19990;-69
2021/05/29 00:11:13;;;;;;;;;;;;;;;8.52;100.00;101480.81;5070533;28;19924;-69
2021/05/29 00:13:40;;;;;;;;;;;;;;;8.51;100.00;101488.06;5070446;28;20332;-69
2021/05/29 00:16:08;;;;;;;;;;;;;;;8.61;100.00;101493.78;5052688;28;19929;-69
2021/05/29 00:18:34;;;;;;;;;;;;;;;8.65;100.00;101492.63;5052306;28;19935;-68
2021/05/29 00:21:00;;;;;;;;;;;;;;;8.66;100.00;101497.09;5070669;28;19940;-69
2021/05/29 00:23:26;;;;;;;;;;;;;;;8.69;100.00;101498.75;5052487;28;19959;-69
2021/05/29 00:25:52;;;;;;;;;;;;;;;8.73;100.00;101497.59;5070690;28;20449;-69
2021/05/29 00:28:18;;;;;;;;;;;;;;;8.83;100.00;101497.88;5052708;28;19925;-69
2021/05/29 00:30:46;;;;;;;;;;;;;;;8.86;100.00;101490.44;5070221;28;19932;-69
2021/05/29 00:33:12;;;;;;;;;;;;;;;8.86;100.00;101484.19;5070480;28;20314;-69
2021/05/29 00:35:38;;;;;;;;;;;;;;;8.86;100.00;101485.03;5070260;28;19932;-69
2021/05/29 00:38:05;;;;;;;;;;;;;;;8.85;100.00;101485.13;5052534;28;19924;-69
2021/05/29 00:40:31;;;;;;;;;;;;;;;8.81;100.00;101489.00;5070756;28;20338;-69
2021/05/29 00:42:57;;;;;;;;;;;;;;;8.81;100.00;101491.72;5074325;28;19925;-69
2021/05/29 00:45:23;;;;;;;;;;;;;;;8.73;100.00;101486.75;5055277;28;19924;-69
2021/05/29 00:47:49;;;;;;;;;;;;;;;8.68;100.00;101489.72;5074124;28;19932;-69
2021/05/29 00:50:16;;;;;;;;;;;;;;;8.66;100.00;101496.22;5074457;28;19924;-69
2021/05/29 00:52:42;;;;;;;;;;;;;;;8.59;100.00;101493.03;5073084;28;19990;-69
2021/05/29 00:55:09;;;;;;;;;;;;;;;8.59;100.00;101494.84;5073595;28;19956;-69
2021/05/29 00:57:37;;;;;;;;;;;;;;;8.46;100.00;101484.75;5074496;28;20011;-69
2021/05/29 01:00:03;;;;;;;;;;;;;;;8.26;100.00;101496.75;5074149;28;19935;-69
2021/05/29 01:02:29;;;;;;;;;;;;;;;8.36;100.00;101488.94;5056252;28;19924;-68
2021/05/29 01:04:56;;;;;;;;;;;;;;;8.43;100.00;101494.84;5073965;28;19932;-69
2021/05/29 01:07:21;;;;;;;;;;;;;;;8.61;100.00;101493.78;5072548;28;19964;-69
2021/05/29 01:09:47;;;;;;;;;;;;;;;8.77;100.00;101496.44;5056167;28;19924;-69
2021/05/29 01:12:17;;;;;;;;;;;;;;;8.84;100.00;101496.91;5073672;28;20386;-69
2021/05/29 01:14:49;;;;;;;;;;;;;;;8.91;100.00;101494.69;5073612;28;19951;-69
2021/05/29 01:17:15;;;;;;;;;;;;;;;9.01;100.00;101501.28;5073610;28;19924;-69
2021/05/29 01:19:41;;;;;;;;;;;;;;;8.96;100.00;101493.44;5074031;28;19971;-69
2021/05/29 01:22:08;;;;;;;;;;;;;;;9.05;100.00;101494.72;5056027;28;19982;-69
2021/05/29 01:24:34;;;;;;;;;;;;;;;9.11;100.00;101488.91;5073188;28;19928;-69
2021/05/29 01:27:00;;;;;;;;;;;;;;;9.19;100.00;101494.72;5073901;28;20291;-69
2021/05/29 01:29:26;;;;;;;;;;;;;;;9.27;100.00;101485.22;5055529;28;19930;-69
2021/05/29 01:32:00;;;;;;;;;;;;;;;9.23;100.00;101492.66;5073455;28;20027;-69
2021/05/29 01:34:28;;;;;;;;;;;;;;;9.20;100.00;101490.16;5073224;28;19925;-69
2021/05/29 01:36:54;;;;;;;;;;;;;;;9.16;100.00;101489.47;5073494;28;19925;-69
2021/05/29 01:39:21;;;;;;;;;;;;;;;9.15;100.00;101487.75;5037688;28;20449;-69
2021/05/29 01:41:47;;;;;;;;;;;;;;;9.01;100.00;101488.63;5055310;28;19942;-69
2021/05/29 01:44:13;;;;;;;;;;;;;;;8.94;100.00;101489.97;5073007;28;20350;-69
2021/05/29 01:46:39;;;;;;;;;;;;;;;8.94;100.00;101494.50;5073380;28;19977;-69
2021/05/29 01:49:05;;;;;;;;;;;;;;;9.02;100.00;101489.50;5055477;28;19928;-69
2021/05/29 01:51:31;;;;;;;;;;;;;;;9.05;100.00;101492.00;5053822;28;19936;-69
2021/05/29 01:53:56;;;;;;;;;;;;;;;8.99;100.00;101493.28;5072025;28;19944;-69
2021/05/29 01:56:23;;;;;;;;;;;;;;;8.97;100.00;101489.78;5073329;28;19930;-69
2021/05/29 01:58:49;;;;;;;;;;;;;;;8.88;100.00;101484.94;5073282;28;20336;-69
2021/05/29 02:01:15;;;;;;;;;;;;;;;8.90;100.00;101482.13;5073034;28;20027;-69
2021/05/29 02:03:44;;;;;;;;;;;;;;;8.86;100.00;101487.75;5073143;28;19924;-69
2021/05/29 02:06:10;;;;;;;;;;;;;;;8.83;100.00;101487.06;5072902;28;19978;-69
2021/05/29 02:08:36;;;;;;;;;;;;;;;8.81;100.00;101484.44;5072777;28;19928;-68
2021/05/29 02:11:03;;;;;;;;;;;;;;;8.86;100.00;101486.88;5072005;28;20026;-69
2021/05/29 02:13:30;;;;;;;;;;;;;;;8.88;100.00;101480.41;5072325;28;19931;-69
2021/05/29 02:15:57;;;;;;;;;;;;;;;8.96;100.00;101492.59;5055118;28;19978;-69
2021/05/29 02:18:23;;;;;;;;;;;;;;;8.86;100.00;101495.00;5072617;28;19978;-69
2021/05/29 02:20:50;;;;;;;;;;;;;;;8.80;100.00;101493.53;5072882;28;19924;-69
2021/05/29 02:23:18;;;;;;;;;;;;;;;8.81;100.00;101491.72;5054557;28;19963;-69
2021/05/29 02:25:44;;;;;;;;;;;;;;;8.76;100.00;101491.97;5072414;28;19935;-69
2021/05/29 02:28:10;;;;;;;;;;;;;;;8.72;100.00;101495.84;5053304;28;19955;-69
2021/05/29 02:30:37;;;;;;;;;;;;;;;8.65;100.00;101503.47;5072197;28;19964;-69
2021/05/29 02:33:04;;;;;;;;;;;;;;;8.62;100.00;101500.94;5052898;28;19973;-69
2021/05/29 02:35:30;;;;;;;;;;;;;;;8.63;100.00;101507.22;5054214;28;19963;-69
2021/05/29 02:37:56;;;;;;;;;;;;;;;8.64;100.00;101504.41;5054639;28;19947;-69
2021/05/29 02:40:22;;;;;;;;;;;;;;;8.61;100.00;101518.16;5070989;28;20246;-69
2021/05/29 02:42:48;;;;;;;;;;;;;;;8.73;100.00;101513.81;5072107;28;20070;-69
2021/05/29 02:45:14;;;;;;;;;;;;;;;8.73;100.00;101511.13;5071801;28;19971;-69
2021/05/29 02:47:41;;;;;;;;;;;;;;;8.76;100.00;101516.34;5070757;28;19960;-69
2021/05/29 02:50:07;;;;;;;;;;;;;;;8.81;100.00;101510.66;5054356;28;19924;-69
2021/05/29 02:52:34;;;;;;;;;;;;;;;8.83;100.00;101504.19;5071208;28;20395;-69
2021/05/29 02:54:59;;;;;;;;;;;;;;;8.84;100.00;101515.88;5071851;28;19970;-69
2021/05/29 02:57:25;;;;;;;;;;;;;;;8.84;100.00;101514.03;5070838;28;19925;-69
2021/05/29 02:59:51;;;;;;;;;;;;;;;8.80;100.00;101512.47;5071287;28;19934;-69
2021/05/29 03:02:17;;;;;;;;;;;;;;;8.75;100.00;101511.88;5071955;28;19924;-70
2021/05/29 03:04:44;;;;;;;;;;;;;;;8.79;100.00;101507.16;5071648;28;19924;-69
2021/05/29 03:07:10;;;;;;;;;;;;;;;8.86;100.00;101524.78;5071797;28;20391;-69
2021/05/29 03:09:36;;;;;;;;;;;;;;;8.92;100.00;101513.56;5070066;28;19931;-69
2021/05/29 03:12:02;;;;;;;;;;;;;;;8.94;100.00;101516.16;5071363;28;19944;-69
2021/05/29 03:14:27;;;;;;;;;;;;;;;9.00;100.00;101526.63;5071643;28;19963;-69
2021/05/29 03:16:53;;;;;;;;;;;;;;;9.09;100.00;101520.66;5071496;28;19924;-69
2021/05/29 03:19:20;;;;;;;;;;;;;;;9.27;100.00;101525.88;5071513;28;20069;-69
2021/05/29 03:21:47;;;;;;;;;;;;;;;9.40;100.00;101524.13;5071651;28;19933;-70
2021/05/29 03:24:13;;;;;;;;;;;;;;;9.50;100.00;101525.28;5071174;28;20372;-69
2021/05/29 03:26:39;;;;;;;;;;;;;;;9.58;100.00;101524.81;5071500;28;20407;-69
2021/05/29 03:29:05;;;;;;;;;;;;;;;9.68;100.00;101519.66;5071401;28;20007;-69
2021/05/29 03:31:31;;;;;;;;;;;;;;;9.76;100.00;101524.56;5071280;28;19940;-69
2021/05/29 03:33:57;;;;;;;;;;;;;;;9.88;100.00;101524.63;5071408;28;19924;-69
2021/05/29 03:36:23;;;;;;;;;;;;;;;10.00;100.00;101527.50;5070697;28;19931;-69
2021/05/29 03:38:50;;;;;;;;;;;;;;;10.03;100.00;101530.91;5053668;28;19924;-69
2021/05/29 03:41:16;;;;;;;;;;;;;;;10.07;100.00;101523.41;5070549;28;19925;-69
2021/05/29 03:43:41;;;;;;;;;;;;;;;10.18;100.00;101531.72;5071132;28;19947;-69
2021/05/29 03:46:07;;;;;;;;;;;;;;;10.04;100.00;101531.75;5053327;28;20073;-70
2021/05/29 03:48:33;;;;;;;;;;;;;;;10.15;100.00;101531.03;5071181;28;19924;-69
2021/05/29 03:50:59;;;;;;;;;;;;;;;10.29;100.00;101532.81;5071140;28;19924;-69
2021/05/29 03:53:25;;;;;;;;;;;;;;;10.49;100.00;101523.34;5070692;28;19931;-69
2021/05/29 03:55:52;;;;;;;;;;;;;;;10.34;100.00;101514.38;5053061;28;19928;-70
2021/05/29 03:58:18;;;;;;;;;;;;;;;10.26;100.00;101519.47;5070981;28;19960;-70
2021/05/29 04:00:44;;;;;;;;;;;;;;;10.49;100.00;101517.94;5071132;28;19925;-70
2021/05/29 04:03:10;;;;;;;;;;;;;;;10.55;100.00;101518.41;5071034;28;20295;-70
2021/05/29 04:05:36;;;;;;;;;;;;;;;10.62;100.00;101523.41;5070542;28;19928;-69
2021/05/29 04:08:02;;;;;;;;;;;;;;;10.75;100.00;101518.84;5053019;28;19925;-70
2021/05/29 04:10:29;;;;;;;;;;;;;;;10.53;100.00;101527.63;5052675;28;19960;-70
2021/05/29 04:12:56;;;;;;;;;;;;;;;10.68;100.00;101523.00;5070883;28;20410;-70
2021/05/29 04:15:23;;;;;;;;;;;;;;;10.70;100.00;101521.03;5070133;28;19928;-70
2021/05/29 04:17:49;;;;;;;;;;;;;;;10.55;100.00;101522.94;5070562;28;20417;-69
2021/05/29 04:20:16;;;;;;;;;;;;;;;10.79;100.00;101528.53;5070764;28;19925;-70
2021/05/29 04:22:42;;;;;;;;;;;;;;;10.36;100.00;101539.63;5070534;28;19928;-70
2021/05/29 04:25:10;;;;;;;;;;;;;;;10.63;100.00;101530.56;5070868;28;19939;-69
2021/05/29 04:27:36;;;;;;;;;;;;;;;10.25;100.00;101536.72;5070996;28;20025;-70
2021/05/29 04:30:03;;;;;;;;;;;;;;;10.16;100.00;101541.78;5052733;28;20384;-71
2021/05/29 04:32:29;;;;;;;;;;;;;;;9.96;100.00;101547.69;5070357;28;19967;-71
2021/05/29 04:34:55;;;;;;;;;;;;;;;10.37;100.00;101552.22;5070331;28;19924;-70
2021/05/29 04:37:20;;;;;;;;;;;;;;;10.61;100.00;101548.81;5070777;28;20050;-70
2021/05/29 04:39:46;;;;;;;;;;;;;;;10.89;100.00;101564.09;5070871;28;20280;-70
2021/05/29 04:42:12;;;;;;;;;;;;;;;10.95;100.00;101555.50;5054474;28;20391;-70
2021/05/29 04:44:38;;;;;;;;;;;;;;;11.13;100.00;101558.78;5070398;28;20015;-69
2021/05/29 04:47:05;;;;;;;;;;;;;;;11.17;100.00;101557.59;5090481;28;19924;-70
2021/05/29 04:49:31;;;;;;;;;;;;;;;11.30;100.00;101563.00;5064070;28;19970;-70
2021/05/29 04:51:58;;;;;;;;;;;;;;;11.22;100.00;101557.25;5081500;28;19924;-70
2021/05/29 04:54:23;;;;;;;;;;;;;;;11.35;100.00;101568.97;5052034;28;19944;-70
2021/05/29 04:56:49;;;;;;;;;;;;;;;11.49;100.00;101567.13;5077899;28;19925;-70
2021/05/29 04:59:15;;;;;;;;;;;;;;;11.11;100.00;101566.16;5074913;28;20422;-71
2021/05/29 05:01:41;;;;;;;;;;;;;;;11.29;100.00;101572.16;5068619;28;19955;-70
2021/05/29 05:04:08;;;;;;;;;;;;;;;11.46;100.00;101562.78;5032443;28;20252;-70
2021/05/29 05:06:34;;;;;;;;;;;;;;;11.51;100.00;101566.03;5049661;28;19982;-70
2021/05/29 05:09:00;;;;;;;;;;;;;;;11.67;100.00;101570.38;5052784;28;19932;-70
2021/05/29 05:11:26;;;;;;;;;;;;;;;11.83;100.00;101576.44;5070208;28;20014;-70
2021/05/29 05:13:52;;;;;;;;;;;;;;;11.69;100.00;101568.41;5070127;28;19929;-70
2021/05/29 05:16:18;;;;;;;;;;;;;;;11.85;100.00;101570.88;5070172;28;19924;-70
2021/05/29 05:18:45;;;;;;;;;;;;;;;11.44;100.00;101569.31;5070521;28;19924;-70
2021/05/29 05:21:11;;;;;;;;;;;;;;;11.69;100.00;101571.13;5052385;28;20025;-70
2021/05/29 05:23:37;;;;;;;;;;;;;;;11.82;100.00;101573.84;5069345;28;20027;-70
2021/05/29 05:26:04;;;;;;;;;;;;;;;12.00;100.00;101571.66;5052420;28;19960;-70
2021/05/29 05:28:30;;;;;;;;;;;;;;;12.05;100.00;101577.59;5054551;28;20252;-70
2021/05/29 05:30:56;;;;;;;;;;;;;;;12.11;100.00;101571.72;5075516;28;19935;-69
2021/05/29 05:33:23;;;;;;;;;;;;;;;12.11;100.00;101568.13;5060553;28;19932;-69
2021/05/29 05:35:49;;;;;;;;;;;;;;;12.08;100.00;101566.50;5073614;28;19925;-69
2021/05/29 05:38:16;;;;;;;;;;;;;;;12.12;100.00;101569.84;5065665;28;19924;-69
2021/05/29 05:40:42;;;;;;;;;;;;;;;12.16;100.00;101577.69;5093446;28;19928;-69
2021/05/29 05:43:08;;;;;;;;;;;;;;;11.77;100.00;101579.63;5085035;28;19969;-69
2021/05/29 05:45:34;;;;;;;;;;;;;;;11.60;100.00;101583.56;5073560;28;19968;-70
2021/05/29 05:48:00;;;;;;;;;;;;;;;11.86;100.00;101587.09;5065172;28;19925;-69
2021/05/29 05:50:26;;;;;;;;;;;;;;;11.88;100.00;101590.56;5054962;28;19947;-69
2021/05/29 05:52:52;;;;;;;;;;;;;;;12.15;100.00;101586.84;5038657;28;19958;-69
2021/05/29 05:55:18;;;;;;;;;;;;;;;12.22;100.00;101589.97;5089385;28;19968;-72
2021/05/29 05:57:44;;;;;;;;;;;;;;;12.42;100.00;101588.47;5093797;28;19924;-74
2021/05/29 06:00:11;;;;;;;;;;;;;;;11.91;100.00;101588.63;5091429;28;20307;-73
2021/05/29 06:02:38;;;;;;;;;;;;;;;12.41;100.00;101585.88;5091735;28;19938;-72
2021/05/29 06:05:04;;;;;;;;;;;;;;;12.65;100.00;101594.03;5093055;28;20363;-73
2021/05/29 06:07:30;;;;;;;;;;;;;;;12.97;100.00;101591.53;5086040;28;19964;-74
2021/05/29 06:09:56;;;;;;;;;;;;;;;13.07;100.00;101595.28;5073094;28;20038;-73
2021/05/29 06:12:22;;;;;;;;;;;;;;;13.27;100.00;101600.16;5073061;28;19928;-72
2021/05/29 06:20:16;;;;;;;;;;;;;;;13.12;100.00;101594.94;5072228;28;19970;-73
2021/05/29 06:22:42;;;;;;;;;;;;;;;13.15;100.00;101599.28;5072675;28;19929;-73
2021/05/29 06:25:09;;;;;;;;;;;;;;;13.33;100.00;101600.53;5072389;28;19959;-72
2021/05/29 06:27:36;;;;;;;;;;;;;;;13.49;100.00;101608.41;5072518;28;19979;-73
2021/05/29 06:30:03;;;;;;;;;;;;;;;13.28;100.00;101607.34;5053481;28;19928;-72
2021/05/29 06:32:28;;;;;;;;;;;;;;;13.58;100.00;101603.22;5072200;28;19972;-72
2021/05/29 06:34:54;;;;;;;;;;;;;;;13.61;100.00;101611.16;5071083;28;19986;-73
2021/05/29 06:37:20;;;;;;;;;;;;;;;13.42;100.00;101609.91;5072449;28;19925;-73
2021/05/29 06:39:46;;;;;;;;;;;;;;;13.37;100.00;101612.09;5072166;28;19925;-73
2021/05/29 06:42:12;;;;;;;;;;;;;;;13.50;100.00;101609.28;5072355;28;19951;-72
2021/05/29 06:44:39;;;;;;;;;;;;;;;13.84;100.00;101612.00;5054631;28;19978;-72
2021/05/29 06:47:05;;;;;;;;;;;;;;;13.89;100.00;101613.38;5072225;28;20373;-72
2021/05/29 06:49:31;;;;;;;;;;;;;;;14.15;100.00;101607.66;5072424;28;19931;-73
2021/05/29 06:52:00;;;;;;;;;;;;;;;14.11;100.00;101606.19;5071288;28;19925;-73
2021/05/29 06:54:36;;;;;;;;;;;;;;;14.26;100.00;101614.06;5071836;28;20011;-72
2021/05/29 06:59:48;;;;;;;;;;;;;;;13.93;100.00;101613.16;5072130;28;19928;-73
2021/05/29 07:02:13;;;;;;;;;;;;;;;14.34;100.00;101608.88;5072074;28;19924;-73
2021/05/29 07:04:39;;;;;;;;;;;;;;;14.90;100.00;101608.69;5071799;28;19924;-72
2021/05/29 07:07:05;;;;;;;;;;;;;;;14.78;100.00;101604.28;5072130;28;20035;-73
2021/05/29 07:09:31;;;;;;;;;;;;;;;15.42;100.00;101607.00;5072401;28;20011;-73
2021/05/29 07:11:57;;;;;;;;;;;;;;;15.45;100.00;101610.34;5071554;28;19967;-73
2021/05/29 07:14:23;;;;;;;;;;;;;;;15.88;100.00;101601.06;5071504;28;20032;-72
2021/05/29 07:16:50;;;;;;;;;;;;;;;15.82;100.00;101603.50;5070459;28;20117;-73
2021/05/29 07:19:16;;;;;;;;;;;;;;;15.59;100.00;101598.16;5071733;28;20273;-74
2021/05/29 07:21:42;;;;;;;;;;;;;;;15.71;100.00;101594.38;5071656;28;19935;-74
2021/05/29 07:24:08;;;;;;;;;;;;;;;15.66;100.00;101598.50;5071655;28;19986;-73
2021/05/29 07:26:34;;;;;;;;;;;;;;;16.15;100.00;101599.56;5071265;28;19932;-74
2021/05/29 07:29:00;;;;;;;;;;;;;;;16.90;100.00;101599.09;5036995;28;19928;-73
2021/05/29 07:31:26;;;;;;;;;;;;;;;17.33;100.00;101596.88;5071272;28;19950;-73
2021/05/29 07:33:54;;;;;;;;;;;;;;;17.76;100.00;101595.47;5071118;28;19928;-73
2021/05/29 07:36:20;;;;;;;;;;;;;;;18.18;100.00;101605.13;5071373;28;19928;-72
2021/05/29 07:38:46;;;;;;;;;;;;;;;18.76;100.00;101601.09;5071464;28;19978;-73
2021/05/29 07:41:12;;;;;;;;;;;;;;;19.62;100.00;101598.69;5071132;28;20457;-74
2021/05/29 07:43:38;;;;;;;;;;;;;;;19.96;100.00;101595.94;5053419;28;20465;-74
2021/05/29 07:46:04;;;;;;;;;;;;;;;19.15;100.00;101595.28;5071612;28;20414;-73
2021/05/29 07:48:32;;;;;;;;;;;;;;;19.80;100.00;101602.25;5071774;28;19931;-73
2021/05/29 07:51:01;;;;;;;;;;;;;;;18.45;100.00;101606.09;5090770;28;19924;-74
2021/05/29 07:53:27;;;;;;;;;;;;;;;18.60;100.00;101607.31;5072851;28;20461;-73
2021/05/29 07:55:53;;;;;;;;;;;;;;;18.72;100.00;101605.19;5091400;28;19924;-74
2021/05/29 07:58:19;;;;;;;;;;;;;;;18.71;100.00;101607.06;5091220;28;19970;-73
2021/05/29 08:00:50;;;;;;;;;;;;;;;18.17;100.00;101614.38;5091385;28;19924;-75
2021/05/29 08:03:16;;;;;;;;;;;;;;;18.32;100.00;101620.22;5072539;28;20396;-74
2021/05/29 08:05:41;;;;;;;;;;;;;;;18.06;100.00;101620.94;5070692;28;19956;-74
2021/05/29 08:08:08;;;;;;;;;;;;;;;17.84;100.00;101622.19;5053026;28;19978;-73
2021/05/29 08:10:36;;;;;;;;;;;;;;;17.66;100.00;101614.69;5070003;28;21244;-73
2021/05/29 08:13:02;;;;;;;;;;;;;;;17.06;100.00;101614.97;5070796;28;20368;-73
2021/05/29 08:15:28;;;;;;;;;;;;;;;16.96;100.00;101611.41;5070732;28;19963;-73
2021/05/29 08:17:54;;;;;;;;;;;;;;;17.45;100.00;101609.44;5069458;28;19928;-72
2021/05/29 08:20:20;;;;;;;;;;;;;;;17.56;100.00;101611.16;5070763;28;19928;-73
2021/05/29 08:22:46;;;;;;;;;;;;;;;17.66;100.00;101611.94;5052817;28;19925;-71
2021/05/29 08:25:13;;;;;;;;;;;;;;;17.72;100.00;101610.50;5070818;28;19971;-73
2021/05/29 08:27:39;;;;;;;;;;;;;;;17.82;100.00;101611.31;5050441;28;19925;-73
2021/05/29 08:30:05;;;;;;;;;;;;;;;17.40;100.00;101611.75;5069251;28;20030;-73
2021/05/29 08:32:31;;;;;;;;;;;;;;;18.82;100.00;101597.72;5068974;28;19965;-73
2021/05/29 08:34:57;;;;;;;;;;;;;;;18.83;100.00;101598.59;5070362;28;19925;-73
2021/05/29 08:37:23;;;;;;;;;;;;;;;18.70;100.00;101604.47;5069441;28;19924;-73
2021/05/29 08:39:49;;;;;;;;;;;;;;;18.81;100.00;101609.72;5068918;28;20415;-73
2021/05/29 08:42:16;;;;;;;;;;;;;;;19.17;100.00;101609.72;5070646;28;19924;-73
2021/05/29 08:44:42;;;;;;;;;;;;;;;18.43;100.00;101616.41;5070379;28;20437;-74
2021/05/29 08:47:07;;;;;;;;;;;;;;;18.30;100.00;101622.25;5069620;28;19925;-72
2021/05/29 08:49:33;;;;;;;;;;;;;;;17.97;100.00;101621.84;5068893;28;19924;-72
2021/05/29 08:52:01;;;;;;;;;;;;;;;17.84;100.00;101625.78;5052342;28;19925;-73
2021/05/29 08:54:28;;;;;;;;;;;;;;;17.95;100.00;101626.66;5070560;28;19924;-73
2021/05/29 08:56:54;;;;;;;;;;;;;;;17.60;100.00;101618.06;5069936;28;19924;-73
2021/05/29 08:59:20;;;;;;;;;;;;;;;17.45;100.00;101619.53;5052546;28;19929;-72
2021/05/29 09:01:46;;;;;;;;;;;;;;;17.59;100.00;101618.22;5070435;28;19924;-74
2021/05/29 09:04:12;;;;;;;;;;;;;;;17.50;100.00;101617.22;5071943;28;19971;-72
2021/05/29 09:06:40;;;;;;;;;;;;;;;17.94;100.00;101624.91;5074326;28;19981;-72
2021/05/29 09:09:08;;;;;;;;;;;;;;;17.78;100.00;101609.03;5073948;28;19931;-72
2021/05/29 09:11:35;;;;;;;;;;;;;;;17.59;100.00;101613.59;5056545;28;19924;-74
2021/05/29 09:14:21;;;;;;;;;;;;;;;17.73;100.00;101617.72;5073831;28;20427;-73
2021/05/29 09:17:00;;;;;;;;;;;;;;;18.34;100.00;101620.94;5073869;28;20426;-73
2021/05/29 09:19:25;;;;;;;;;;;;;;;18.56;100.00;101609.50;5074075;28;19940;-73
2021/05/29 09:21:51;;;;;;;;;;;;;;;19.08;100.00;101618.97;5073428;28;20184;-73
2021/05/29 09:24:18;;;;;;;;;;;;;;;19.51;100.00;101611.69;5073615;28;20441;-73
2021/05/29 09:26:47;;;;;;;;;;;;;;;19.96;99.33;101606.13;5073776;28;19925;-72
2021/05/29 09:29:18;;;;;;;;;;;;;;;20.20;95.34;101605.34;5074046;28;20319;-74
2021/05/29 09:31:50;;;;;;;;;;;;;;;19.69;93.96;101610.78;5073857;28;19929;-72
2021/05/29 09:34:28;;;;;;;;;;;;;;;20.07;98.04;101608.59;5073666;28;19968;-72
2021/05/29 09:37:01;;;;;;;;;;;;;;;20.49;90.20;101613.19;5053106;28;20470;-73
2021/05/29 09:39:30;;;;;;;;;;;;;;;21.29;87.69;101610.88;5066275;28;19970;-71
2021/05/29 09:41:57;;;;;;;;;;;;;;;21.63;79.61;101605.13;5073528;28;20373;-74
2021/05/29 09:44:26;;;;;;;;;;;;;;;21.71;77.04;101605.13;5073193;28;19974;-70
2021/05/29 09:46:53;;;;;;;;;;;;;;;22.32;78.94;101617.50;5073646;28;20301;-71
2021/05/29 09:49:19;;;;;;;;;;;;;;;22.22;77.06;101610.28;5080060;28;19928;-78
2021/05/29 09:51:46;;;;;;;;;;;;;;;22.57;71.15;101607.19;5083378;28;19933;-78
2021/05/29 09:54:12;;;;;;;;;;;;;;;21.49;72.18;101606.69;5076746;28;19932;-78
2021/05/29 09:56:40;;;;;;;;;;;;;;;21.35;81.68;101601.88;5074396;28;19929;-78
2021/05/29 09:59:07;;;;;;;;;;;;;;;20.80;81.44;101598.78;5073856;28;19931;-79
2021/05/29 10:01:46;;;;;;;;;;;;;;;20.98;79.54;101606.03;5072940;28;19978;-78
2021/05/29 10:04:14;;;;;;;;;;;;;;;22.24;75.26;101607.31;5074133;28;19929;-69
2021/05/29 10:06:40;;;;;;;;;;;;;;;23.34;68.81;101599.84;5072169;28;19924;-68
2021/05/29 10:09:07;;;;;;;;;;;;;;;23.35;58.53;101587.72;5072256;28;20410;-68
2021/05/29 10:11:35;;;;;;;;;;;;;;;22.41;62.62;101602.63;5053576;28;20285;-69
2021/05/29 10:14:01;;;;;;;;;;;;;;;22.83;68.37;101605.97;5068761;28;19925;-70
2021/05/29 10:16:27;;;;;;;;;;;;;;;22.63;65.49;101611.13;5073290;28;19924;-79
2021/05/29 10:18:57;;;;;;;;;;;;;;;22.32;65.43;101604.50;5055327;28;19960;-70
2021/05/29 10:21:26;;;;;;;;;;;;;;;22.39;63.93;101599.16;5072239;28;19928;-79
2021/05/29 10:23:52;;;;;;;;;;;;;;;22.83;62.49;101600.41;5073118;28;19959;-80
2021/05/29 10:26:18;;;;;;;;;;;;;;;23.77;57.83;101586.22;5086326;28;20026;-78
2021/05/29 10:28:44;;;;;;;;;;;;;;;24.94;62.69;101583.56;5083558;28;20112;-79
2021/05/29 10:31:11;;;;;;;;;;;;;;;24.93;53.68;101585.47;5072776;28;19932;-79
2021/05/29 10:33:40;;;;;;;;;;;;;;;23.41;52.95;101578.66;5073103;28;19925;-78
2021/05/29 10:36:06;;;;;;;;;;;;;;;23.18;63.80;101590.66;5073625;28;19924;-77
2021/05/29 10:38:41;;;;;;;;;;;;;;;22.41;63.20;101597.09;5054937;28;19935;-77
2021/05/29 10:41:07;;;;;;;;;;;;;;;21.95;70.38;101586.72;5072929;28;20085;-78
2021/05/29 10:43:36;;;;;;;;;;;;;;;22.17;64.82;101585.06;5073565;28;19924;-79
2021/05/29 10:46:13;;;;;;;;;;;;;;;22.44;76.14;101580.13;5074985;28;19924;-78
2021/05/29 10:48:43;;;;;;;;;;;;;;;22.01;65.22;101587.94;5082359;28;20517;-75
2021/05/29 10:51:10;;;;;;;;;;;;;;;21.85;69.73;101583.31;5072291;28;20340;-75
2021/05/29 10:53:38;;;;;;;;;;;;;;;22.60;66.91;101583.81;5081948;28;19928;-75
2021/05/29 10:56:22;;;;;;;;;;;;;;;23.10;61.73;101589.81;5092013;28;19947;-76
2021/05/29 10:58:59;;;;;;;;;;;;;;;23.43;57.83;101573.78;5090745;28;19964;-75
2021/05/29 11:01:42;;;;;;;;;;;;;;;23.77;60.08;101574.25;5092246;28;19928;-76
2021/05/29 11:04:21;;;;;;;;;;;;;;;22.85;62.76;101579.81;5072143;28;19924;-74
2021/05/29 11:06:49;;;;;;;;;;;;;;;22.19;69.09;101576.59;5071945;28;20008;-75
2021/05/29 11:09:15;;;;;;;;;;;;;;;22.50;65.53;101572.97;5072683;28;19928;-76
2021/05/29 11:11:54;;;;;;;;;;;;;;;22.47;68.76;101571.44;5054893;28;19932;-75
2021/05/29 11:14:22;;;;;;;;;;;;;;;22.11;61.55;101580.25;5057122;28;20281;-75
2021/05/29 11:17:06;;;;;;;;;;;;;;;21.63;66.87;101584.94;5071843;28;19998;-76
2021/05/29 11:19:33;;;;;;;;;;;;;;;22.30;70.20;101583.63;5059593;28;19936;-74
2021/05/29 11:22:00;;;;;;;;;;;;;;;22.05;72.60;101581.84;5052127;28;19924;-75
2021/05/29 11:24:26;;;;;;;;;;;;;;;21.64;74.26;101579.22;5070699;28;19925;-76
2021/05/29 11:26:52;;;;;;;;;;;;;;;21.47;71.77;101567.34;5070679;28;19964;-76
2021/05/29 11:29:18;;;;;;;;;;;;;;;22.33;65.87;101570.28;5071003;28;19951;-76
2021/05/29 11:31:45;;;;;;;;;;;;;;;22.64;62.27;101566.66;5063258;28;19984;-75
2021/05/29 11:34:11;;;;;;;;;;;;;;;22.71;59.96;101575.94;5072374;28;19948;-76
2021/05/29 11:36:39;;;;;;;;;;;;;;;23.77;58.91;101577.03;5071176;28;20388;-76
2021/05/29 11:39:08;;;;;;;;;;;;;;;23.68;55.77;101588.22;5077704;28;19968;-76
2021/05/29 11:41:34;;;;;;;;;;;;;;;22.15;58.46;101591.81;5090942;28;20338;-76
2021/05/29 11:44:01;;;;;;;;;;;;;;;21.57;63.66;101592.03;5083977;28;19925;-76
2021/05/29 11:46:29;;;;;;;;;;;;;;;21.34;68.55;101586.34;5071423;28;19924;-77
2021/05/29 11:48:57;;;;;;;;;;;;;;;21.28;76.38;101582.38;5090111;28;19924;-78
2021/05/29 11:51:23;;;;;;;;;;;;;;;22.06;68.03;101577.16;5075177;28;19936;-79
2021/05/29 11:53:51;;;;;;;;;;;;;;;23.24;59.29;101564.94;5080161;28;20015;-79
2021/05/29 11:56:17;;;;;;;;;;;;;;;22.84;56.54;101569.78;5082198;28;19935;-78
2021/05/29 11:58:45;;;;;;;;;;;;;;;23.08;56.58;101577.00;5085498;28;19924;-76
2021/05/29 12:01:11;;;;;;;;;;;;;;;22.97;55.50;101569.16;5083849;28;20379;-76
2021/05/29 12:03:38;;;;;;;;;;;;;;;23.84;55.88;101567.75;5061695;28;19924;-76
2021/05/29 12:06:05;;;;;;;;;;;;;;;24.52;52.32;101575.88;5074599;28;20399;-76
2021/05/29 12:08:31;;;;;;;;;;;;;;;23.83;54.44;101560.50;5074304;28;19924;-74
2021/05/29 12:10:57;;;;;;;;;;;;;;;22.66;56.55;101560.94;5057182;28;20303;-78
2021/05/29 12:13:24;;;;;;;;;;;;;;;23.16;58.91;101565.03;5074073;28;19932;-76
2021/05/29 12:15:57;;;;;;;;;;;;;;;22.60;60.40;101564.47;5079727;28;20290;-77
2021/05/29 12:18:23;;;;;;;;;;;;;;;22.48;61.35;101564.88;5091204;28;19928;-75
2021/05/29 12:20:53;;;;;;;;;;;;;;;22.07;62.01;101567.84;5091312;28;19949;-76
2021/05/29 12:23:19;;;;;;;;;;;;;;;21.82;62.96;101567.97;5072999;28;19946;-76
2021/05/29 12:25:45;;;;;;;;;;;;;;;22.00;64.41;101570.47;5090463;28;19968;-77
2021/05/29 12:28:11;;;;;;;;;;;;;;;22.12;68.54;101581.13;5060734;28;19940;-77
2021/05/29 12:30:37;;;;;;;;;;;;;;;21.90;64.54;101578.13;5050309;28;19976;-77
2021/05/29 12:33:17;;;;;;;;;;;;;;;21.86;65.66;101577.63;5069911;28;20217;-78
2021/05/29 12:35:43;;;;;;;;;;;;;;;22.05;70.05;101581.84;5070906;28;20315;-78
2021/05/29 12:38:10;;;;;;;;;;;;;;;21.38;70.00;101579.47;5055447;28;19967;-78
2021/05/29 12:40:36;;;;;;;;;;;;;;;20.76;71.24;101580.84;5056875;28;21646;-76